createdAt,value
2023-02-15T00:00:29.411Z,98.00
2023-02-15T00:02:56.012Z,98.00
2023-02-15T00:05:22.607Z,98.20
2023-02-15T00:07:49.201Z,98.40
2023-02-15T00:10:15.872Z,98.50
2023-02-15T00:12:42.547Z,98.30
2023-02-15T00:15:09.281Z,98.50
2023-02-15T00:17:35.893Z,98.80
2023-02-15T00:20:02.451Z,98.60
2023-02-15T00:22:28.954Z,98.70
2023-02-15T00:24:55.471Z,98.70
2023-02-15T00:27:22.017Z,98.70
2023-02-15T00:29:48.748Z,98.80
2023-02-15T00:32:15.302Z,98.80
2023-02-15T00:34:41.913Z,98.70
2023-02-15T00:37:08.435Z,98.70
2023-02-15T00:39:34.944Z,98.70
2023-02-15T00:42:01.574Z,98.70
2023-02-15T00:44:28.126Z,98.90
2023-02-15T00:46:54.678Z,98.80
2023-02-15T00:49:21.275Z,98.70
2023-02-15T00:51:48.014Z,98.90
2023-02-15T00:54:14.586Z,98.80
2023-02-15T00:56:41.101Z,98.80
2023-02-15T00:59:08.989Z,98.80
2023-02-15T01:01:35.631Z,98.70
2023-02-15T01:04:02.470Z,98.70
2023-02-15T01:06:28.998Z,98.50
2023-02-15T01:08:55.550Z,97.70
2023-02-15T01:11:23.553Z,97.40
2023-02-15T01:13:51.280Z,97.20
2023-02-15T01:16:17.968Z,97.10
2023-02-15T01:18:44.768Z,97.20
2023-02-15T01:21:15.664Z,97.10
2023-02-15T01:23:42.986Z,96.80
2023-02-15T01:26:09.802Z,96.70
2023-02-15T01:28:36.678Z,96.80
2023-02-15T01:31:07.546Z,97.00
2023-02-15T01:33:34.581Z,96.50
2023-02-15T01:36:01.473Z,96.20
2023-02-15T01:38:28.215Z,96.00
2023-02-15T01:41:15.148Z,96.10
2023-02-15T01:43:42.689Z,96.70
2023-02-15T01:46:09.766Z,97.10
2023-02-15T01:48:41.134Z,97.10
2023-02-15T01:51:07.780Z,96.70
2023-02-15T01:53:37.866Z,96.70
2023-02-15T01:56:10.288Z,96.60
2023-02-15T01:58:37.907Z,95.60
2023-02-15T02:01:05.297Z,95.80
2023-02-15T02:03:39.486Z,95.70
2023-02-15T02:06:06.108Z,95.90
2023-02-15T02:08:32.960Z,96.00
2023-02-15T02:10:59.482Z,95.80
2023-02-15T02:13:26.005Z,95.50
2023-02-15T02:15:59.750Z,95.60
2023-02-15T02:18:45.554Z,95.50
2023-02-15T02:21:31.017Z,95.80
2023-02-15T02:24:12.901Z,95.60
2023-02-15T02:26:39.423Z,95.50
2023-02-15T02:29:21.125Z,95.90
2023-02-15T02:32:03.447Z,95.80
2023-02-15T02:34:31.025Z,95.90
2023-02-15T02:37:14.243Z,95.70
2023-02-15T02:39:50.485Z,95.80
2023-02-15T02:42:21.364Z,95.50
2023-02-15T02:44:50.543Z,95.70
2023-02-15T02:47:21.357Z,95.50
2023-02-15T02:49:47.902Z,95.50
2023-02-15T02:52:33.000Z,95.40
2023-02-15T02:54:59.980Z,95.40
2023-02-15T02:57:27.507Z,95.40
2023-02-15T02:59:55.457Z,95.20
2023-02-15T03:02:25.165Z,95.40
2023-02-15T03:04:59.207Z,95.40
2023-02-15T03:07:26.846Z,95.40
2023-02-15T03:09:54.054Z,95.50
2023-02-15T03:12:22.901Z,95.20
2023-02-15T03:14:51.393Z,94.80
2023-02-15T03:17:19.888Z,94.00
2023-02-15T03:19:47.697Z,93.80
2023-02-15T03:22:15.855Z,93.20
2023-02-15T03:24:44.793Z,93.00
2023-02-15T03:27:18.067Z,93.70
2023-02-15T03:29:47.543Z,94.60
2023-02-15T03:32:15.788Z,95.10
2023-02-15T03:34:42.791Z,95.30
2023-02-15T03:37:09.330Z,95.30
2023-02-15T03:39:41.728Z,95.30
2023-02-15T03:42:08.209Z,95.30
2023-02-15T03:44:37.677Z,95.70
2023-02-15T03:47:09.948Z,96.00
2023-02-15T03:49:46.563Z,96.10
2023-02-15T03:52:13.956Z,95.80
2023-02-15T03:54:43.488Z,95.70
2023-02-15T03:57:29.910Z,95.80
2023-02-15T04:00:15.117Z,95.80
2023-02-15T04:02:59.272Z,95.80
2023-02-15T04:05:25.840Z,95.40
2023-02-15T04:07:52.378Z,95.40
2023-02-15T04:10:37.795Z,95.20
2023-02-15T04:13:04.336Z,95.30
2023-02-15T04:15:49.466Z,95.30
2023-02-15T04:18:15.989Z,95.10
2023-02-15T04:21:04.715Z,95.20
2023-02-15T04:23:50.296Z,95.20
2023-02-15T04:26:17.329Z,95.30
2023-02-15T04:28:43.842Z,95.60
2023-02-15T04:31:11.212Z,96.00
2023-02-15T04:33:37.836Z,96.00
2023-02-15T04:36:05.808Z,96.10
2023-02-15T04:38:32.369Z,95.90
2023-02-15T04:40:58.954Z,95.80
2023-02-15T04:43:25.504Z,95.70
2023-02-15T04:45:52.539Z,95.70
2023-02-15T04:48:19.139Z,95.50
2023-02-15T04:50:45.707Z,95.30
2023-02-15T04:53:12.333Z,95.30
2023-02-15T04:55:38.953Z,95.30
2023-02-15T04:58:05.495Z,95.30
2023-02-15T05:00:32.047Z,95.30
2023-02-15T05:02:58.580Z,95.20
2023-02-15T05:05:25.282Z,94.80
2023-02-15T05:07:52.019Z,94.90
2023-02-15T05:10:18.690Z,94.80
2023-02-15T05:12:45.264Z,94.50
2023-02-15T05:15:11.969Z,94.70
2023-02-15T05:17:38.796Z,94.50
2023-02-15T05:20:05.743Z,94.30
2023-02-15T05:22:32.304Z,94.40
2023-02-15T05:25:17.549Z,94.40
2023-02-15T05:28:05.112Z,94.50
2023-02-15T05:30:32.088Z,94.70
2023-02-15T05:32:58.747Z,94.80
2023-02-15T05:35:25.340Z,94.30
2023-02-15T05:37:51.862Z,93.90
2023-02-15T05:40:18.563Z,93.70
2023-02-15T05:42:45.134Z,93.80
2023-02-15T05:45:11.795Z,94.10
2023-02-15T05:47:38.373Z,94.50
2023-02-15T05:50:05.360Z,94.30
2023-02-15T05:52:31.932Z,94.00
2023-02-15T05:55:00.005Z,93.50
2023-02-15T05:57:26.789Z,93.50
2023-02-15T05:59:53.341Z,93.50
2023-02-15T06:02:20.270Z,93.80
2023-02-15T06:04:46.824Z,94.70
2023-02-15T06:07:13.397Z,95.20
2023-02-15T06:09:40.254Z,94.60
2023-02-15T06:12:06.806Z,95.10
2023-02-15T06:14:33.322Z,95.20
2023-02-15T06:16:59.873Z,95.10
2023-02-15T06:19:26.524Z,95.20
2023-02-15T06:21:53.107Z,95.40
2023-02-15T06:24:19.667Z,95.20
2023-02-15T06:26:46.252Z,94.80
2023-02-15T06:29:12.794Z,95.20
2023-02-15T06:31:39.501Z,95.20
2023-02-15T06:34:06.800Z,95.20
2023-02-15T06:36:33.324Z,94.90
2023-02-15T06:38:59.885Z,95.00
2023-02-15T06:41:26.595Z,94.70
2023-02-15T06:43:53.151Z,95.10
2023-02-15T06:46:19.779Z,95.10
2023-02-15T06:48:46.392Z,95.20
2023-02-15T06:51:13.094Z,95.20
2023-02-15T06:53:42.072Z,95.40
2023-02-15T06:56:10.047Z,95.20
2023-02-15T06:58:37.669Z,95.20
2023-02-15T07:01:04.692Z,95.20
2023-02-15T07:03:31.522Z,94.90
2023-02-15T07:05:59.008Z,94.40
2023-02-15T07:08:26.069Z,93.60
2023-02-15T07:10:53.271Z,93.60
2023-02-15T07:13:20.310Z,93.60
2023-02-15T07:15:47.630Z,93.00
2023-02-15T07:18:14.835Z,93.00
2023-02-15T07:20:42.614Z,93.20
2023-02-15T07:23:09.233Z,93.60
2023-02-15T07:25:35.768Z,92.70
2023-02-15T07:28:03.959Z,92.50
2023-02-15T07:30:30.618Z,93.00
2023-02-15T07:33:16.361Z,93.30
2023-02-15T07:35:49.707Z,93.20
2023-02-15T07:38:16.445Z,93.10
2023-02-15T07:40:43.266Z,92.60
2023-02-15T07:43:09.875Z,92.20
2023-02-15T07:45:36.677Z,92.00
2023-02-15T07:48:03.649Z,90.90
2023-02-15T07:50:30.599Z,90.30
2023-02-15T07:52:57.163Z,89.30
2023-02-15T07:55:23.641Z,86.90
2023-02-15T07:57:50.617Z,86.80
2023-02-15T08:00:18.181Z,86.70
2023-02-15T08:03:14.165Z,87.30
2023-02-15T08:05:41.751Z,88.30
2023-02-15T08:08:08.690Z,89.10
2023-02-15T08:10:55.252Z,88.80
2023-02-15T08:13:21.882Z,88.20
2023-02-15T08:15:49.061Z,89.40
2023-02-15T08:18:15.604Z,90.20
2023-02-15T08:20:42.208Z,90.80
2023-02-15T08:23:08.799Z,90.30
2023-02-15T08:25:35.400Z,88.90
2023-02-15T08:28:01.929Z,87.00
2023-02-15T08:30:28.498Z,85.20
2023-02-15T08:32:55.069Z,83.20
2023-02-15T08:35:21.775Z,82.80
2023-02-15T08:37:48.322Z,79.30
2023-02-15T08:40:14.899Z,77.60
2023-02-15T08:42:41.703Z,79.20
2023-02-15T08:45:08.734Z,79.10
2023-02-15T08:47:35.262Z,78.70
2023-02-15T08:50:01.788Z,79.20
2023-02-15T08:52:28.370Z,79.30
2023-02-15T08:54:55.198Z,79.40
2023-02-15T08:57:21.727Z,78.40
2023-02-15T08:59:48.424Z,78.60
2023-02-15T09:02:15.042Z,74.90
2023-02-15T09:04:41.599Z,71.40
2023-02-15T09:07:08.266Z,71.30
2023-02-15T09:09:34.858Z,71.30
2023-02-15T09:12:01.375Z,71.20
2023-02-15T09:14:28.379Z,72.40
2023-02-15T09:16:55.246Z,73.60
2023-02-15T09:19:22.744Z,72.40
2023-02-15T09:21:49.370Z,73.30
2023-02-15T09:24:16.772Z,71.40
2023-02-15T09:26:44.472Z,71.40
2023-02-15T09:29:11.966Z,71.40
2023-02-15T09:31:40.143Z,71.40
2023-02-15T09:34:06.908Z,71.40
2023-02-15T09:36:34.693Z,69.90
2023-02-15T09:39:03.255Z,70.40
2023-02-15T09:41:48.772Z,70.50
2023-02-15T09:44:22.408Z,71.50
2023-02-15T09:47:03.490Z,71.50
2023-02-15T09:49:50.467Z,71.60
2023-02-15T09:52:41.218Z,70.70
2023-02-15T09:55:17.611Z,67.20
2023-02-15T09:57:44.113Z,65.60
2023-02-15T10:00:27.550Z,62.60
2023-02-15T10:03:12.907Z,62.80
2023-02-15T10:05:54.310Z,56.50
2023-02-15T10:08:41.637Z,56.70
2023-02-15T10:11:28.077Z,54.50
2023-02-15T10:14:14.833Z,54.30
2023-02-15T10:16:52.763Z,54.30
2023-02-15T10:19:39.155Z,54.50
2023-02-15T10:22:05.679Z,54.40
2023-02-15T10:24:42.041Z,54.50
2023-02-15T10:27:14.962Z,53.10
2023-02-15T10:30:01.988Z,51.90
2023-02-15T10:32:30.340Z,52.90
2023-02-15T10:35:02.029Z,52.60
2023-02-15T10:37:47.361Z,54.30
2023-02-15T10:40:26.446Z,56.60
2023-02-15T10:43:10.141Z,54.60
2023-02-15T10:45:45.383Z,51.90
2023-02-15T10:48:11.931Z,52.90
2023-02-15T10:50:52.840Z,49.70
2023-02-15T10:53:37.240Z,48.20
2023-02-15T10:56:06.913Z,48.40
2023-02-15T10:58:34.476Z,42.20
2023-02-15T11:01:11.856Z,41.20
2023-02-15T11:04:02.140Z,38.60
2023-02-15T11:06:29.162Z,32.20
2023-02-15T11:09:00.518Z,30.20
2023-02-15T11:11:29.875Z,29.20
2023-02-15T11:14:02.020Z,30.20
2023-02-15T11:16:30.765Z,29.50
2023-02-15T11:19:01.416Z,31.80
2023-02-15T11:21:30.563Z,34.30
2023-02-15T11:23:57.114Z,33.20
2023-02-15T11:26:32.638Z,34.60
2023-02-15T11:29:14.562Z,31.00
2023-02-15T11:31:49.738Z,33.70
2023-02-15T11:34:22.746Z,34.60
2023-02-15T11:36:51.353Z,34.60
2023-02-15T11:39:19.042Z,35.50
2023-02-15T11:41:47.634Z,31.50
2023-02-15T11:44:14.689Z,30.10
2023-02-15T11:46:42.070Z,29.90
2023-02-15T11:49:21.905Z,27.50
2023-02-15T11:51:48.518Z,26.20
2023-02-15T11:54:15.140Z,24.20
2023-02-15T11:56:41.627Z,23.20
2023-02-15T11:59:12.862Z,20.80
2023-02-15T12:01:43.386Z,19.70
2023-02-15T12:04:15.882Z,18.20
2023-02-15T12:06:46.414Z,17.70
2023-02-15T12:09:32.063Z,14.40
2023-02-15T12:12:17.350Z,12.30
2023-02-15T12:14:48.079Z,10.30
2023-02-15T12:17:14.967Z,8.70
2023-02-15T12:19:41.694Z,9.40
2023-02-15T12:22:19.217Z,9.90
2023-02-15T12:24:47.061Z,8.90
2023-02-15T12:27:18.487Z,4.50
2023-02-15T12:29:47.974Z,1.40
2023-02-15T12:32:23.896Z,1.00
2023-02-15T12:34:51.617Z,1.00
2023-02-15T12:37:20.589Z,1.00
2023-02-15T12:39:57.387Z,1.00
2023-02-15T12:42:25.012Z,1.00
2023-02-15T12:44:54.864Z,1.00
2023-02-15T12:47:28.935Z,1.00
2023-02-15T12:50:17.733Z,1.00
2023-02-15T12:52:45.419Z,1.00
2023-02-15T12:55:32.241Z,1.00
2023-02-15T12:58:09.353Z,1.00
2023-02-15T13:00:36.456Z,1.00
2023-02-15T13:03:03.810Z,1.00
2023-02-15T13:05:33.172Z,1.00
2023-02-15T13:08:18.562Z,1.00
2023-02-15T13:10:55.960Z,1.00
2023-02-15T13:13:27.595Z,1.00
2023-02-15T13:15:56.225Z,1.00
2023-02-15T13:18:36.683Z,1.00
2023-02-15T13:21:23.392Z,1.00
2023-02-15T13:23:55.251Z,1.00
2023-02-15T13:26:23.134Z,1.00
2023-02-15T13:28:52.552Z,1.00
2023-02-15T13:31:21.061Z,1.00
2023-02-15T13:33:50.439Z,1.00
2023-02-15T13:36:21.270Z,1.00
2023-02-15T13:38:52.776Z,1.00
2023-02-15T13:41:24.240Z,1.00
2023-02-15T13:44:08.151Z,1.00
2023-02-15T13:46:42.584Z,1.00
2023-02-15T13:49:17.476Z,1.00
2023-02-15T13:51:55.983Z,1.00
2023-02-15T13:54:35.748Z,1.00
2023-02-15T13:57:11.474Z,1.00
2023-02-15T13:59:39.582Z,1.00
2023-02-15T14:02:12.167Z,1.00
2023-02-15T14:04:53.327Z,1.00
2023-02-15T14:07:40.857Z,1.00
2023-02-15T14:10:07.388Z,1.00
2023-02-15T14:12:52.813Z,1.00
2023-02-15T14:15:19.390Z,1.00
2023-02-15T14:17:54.109Z,1.00
2023-02-15T14:20:39.708Z,1.00
2023-02-15T14:23:24.804Z,1.00
2023-02-15T14:25:55.990Z,1.00
2023-02-15T14:28:49.068Z,1.00
2023-02-15T14:31:16.449Z,1.00
2023-02-15T14:34:04.948Z,1.00
2023-02-15T14:36:32.336Z,1.00
2023-02-15T14:38:59.051Z,1.00
2023-02-15T14:41:30.989Z,1.00
2023-02-15T14:44:00.676Z,1.00
2023-02-15T14:46:46.110Z,1.00
2023-02-15T14:49:14.703Z,1.00
2023-02-15T14:51:41.203Z,1.00
2023-02-15T14:54:08.356Z,1.00
2023-02-15T14:56:34.924Z,1.00
2023-02-15T14:59:14.111Z,1.00
2023-02-15T15:01:41.007Z,1.00
2023-02-15T15:04:10.151Z,1.00
2023-02-15T15:06:38.194Z,1.00
2023-02-15T15:09:22.229Z,1.00
2023-02-15T15:11:49.823Z,1.00
2023-02-15T15:14:39.764Z,1.00
2023-02-15T15:17:06.827Z,1.00
2023-02-15T15:19:51.851Z,1.00
2023-02-15T15:22:23.351Z,1.00
2023-02-15T15:24:51.907Z,1.00
2023-02-15T15:27:37.329Z,1.00
2023-02-15T15:30:23.999Z,1.00
2023-02-15T15:32:57.547Z,1.00
2023-02-15T15:35:26.514Z,1.00
2023-02-15T15:38:13.328Z,1.00
2023-02-15T15:40:42.962Z,1.00
2023-02-15T15:43:31.257Z,1.00
2023-02-15T15:46:06.783Z,1.00
2023-02-15T15:48:38.928Z,1.00
2023-02-15T15:51:07.685Z,1.00
2023-02-15T15:53:40.912Z,1.80
2023-02-15T15:56:11.262Z,3.80
2023-02-15T15:58:41.528Z,4.60
2023-02-15T16:01:10.074Z,6.30
2023-02-15T16:03:36.814Z,8.00
2023-02-15T16:06:03.966Z,8.60
2023-02-15T16:08:30.703Z,8.80
2023-02-15T16:10:57.529Z,10.60
2023-02-15T16:13:24.325Z,11.70
2023-02-15T16:15:53.355Z,13.30
2023-02-15T16:18:21.919Z,15.80
2023-02-15T16:20:53.917Z,17.60
2023-02-15T16:23:35.588Z,19.20
2023-02-15T16:26:11.152Z,21.10
2023-02-15T16:28:37.738Z,22.50
2023-02-15T16:31:14.884Z,24.00
2023-02-15T16:33:42.532Z,26.00
2023-02-15T16:36:41.497Z,26.00
2023-02-15T16:39:17.952Z,28.30
2023-02-15T16:41:46.954Z,29.30
2023-02-15T16:44:17.220Z,31.80
2023-02-15T16:46:47.301Z,35.30
2023-02-15T16:49:16.980Z,35.20
2023-02-15T16:51:45.735Z,37.70
2023-02-15T16:54:20.112Z,40.00
2023-02-15T16:56:47.486Z,41.70
2023-02-15T16:59:44.467Z,45.40
2023-02-15T17:02:40.538Z,45.50
2023-02-15T17:05:08.680Z,45.40
2023-02-15T17:07:39.261Z,47.00
2023-02-15T17:10:25.899Z,48.20
2023-02-15T17:12:56.485Z,50.40
2023-02-15T17:15:25.838Z,52.90
2023-02-15T17:17:52.398Z,53.30
2023-02-15T17:20:20.090Z,55.40
2023-02-15T17:22:46.635Z,55.30
2023-02-15T17:25:20.440Z,56.50
2023-02-15T17:27:51.411Z,58.60
2023-02-15T17:30:24.357Z,60.90
2023-02-15T17:32:59.332Z,62.40
2023-02-15T17:35:28.067Z,63.10
2023-02-15T17:38:05.235Z,64.30
2023-02-15T17:40:36.529Z,64.50
2023-02-15T17:43:03.348Z,68.30
2023-02-15T17:45:37.425Z,70.20
2023-02-15T17:48:05.244Z,72.40
2023-02-15T17:50:32.089Z,72.80
2023-02-15T17:52:59.386Z,74.90
2023-02-15T17:55:42.773Z,76.30
2023-02-15T17:58:16.910Z,78.00
2023-02-15T18:01:03.210Z,81.70
2023-02-15T18:03:53.479Z,84.10
2023-02-15T18:06:38.553Z,88.00
2023-02-15T18:09:24.247Z,89.60
2023-02-15T18:11:50.838Z,90.40
2023-02-15T18:14:17.803Z,91.10
2023-02-15T18:16:45.711Z,91.10
2023-02-15T18:19:15.662Z,91.30
2023-02-15T18:21:42.364Z,91.60
2023-02-15T18:24:14.900Z,91.70
2023-02-15T18:26:41.424Z,92.40
2023-02-15T18:29:08.673Z,92.50
2023-02-15T18:31:35.290Z,92.50
2023-02-15T18:34:03.101Z,92.50
2023-02-15T18:36:35.743Z,92.50
2023-02-15T18:39:08.487Z,92.50
2023-02-15T18:41:35.443Z,93.30
2023-02-15T18:44:01.958Z,93.50
2023-02-15T18:46:28.495Z,94.10
2023-02-15T18:48:55.010Z,94.40
2023-02-15T18:51:22.942Z,95.00
2023-02-15T18:53:51.108Z,95.40
2023-02-15T18:56:18.611Z,95.80
2023-02-15T18:58:47.463Z,95.80
2023-02-15T19:01:16.735Z,95.80
2023-02-15T19:03:46.846Z,95.80
2023-02-15T19:06:13.944Z,95.90
2023-02-15T19:08:40.645Z,95.80
2023-02-15T19:11:12.072Z,96.00
2023-02-15T19:13:38.610Z,95.80
2023-02-15T19:16:06.302Z,96.10
2023-02-15T19:18:32.907Z,95.80
2023-02-15T19:20:59.542Z,95.80
2023-02-15T19:23:26.672Z,96.00
2023-02-15T19:25:53.492Z,96.10
2023-02-15T19:28:32.667Z,96.30
2023-02-15T19:30:59.275Z,96.30
2023-02-15T19:33:26.708Z,96.60
2023-02-15T19:35:57.398Z,96.40
2023-02-15T19:38:26.132Z,96.30
2023-02-15T19:40:52.857Z,95.80
2023-02-15T19:43:20.513Z,95.80
2023-02-15T19:45:47.143Z,95.80
2023-02-15T19:48:14.726Z,95.90
2023-02-15T19:50:43.631Z,95.80
2023-02-15T19:53:19.810Z,95.80
2023-02-15T19:55:46.558Z,95.80
2023-02-15T19:58:13.923Z,95.80
2023-02-15T20:00:40.518Z,95.80
2023-02-15T20:03:07.078Z,96.00
2023-02-15T20:05:38.152Z,95.80
2023-02-15T20:08:08.281Z,95.80
2023-02-15T20:10:35.086Z,95.80
2023-02-15T20:13:02.276Z,95.80
2023-02-15T20:15:30.105Z,95.80
2023-02-15T20:17:57.465Z,95.80
2023-02-15T20:20:27.353Z,95.80
2023-02-15T20:22:53.923Z,95.80
2023-02-15T20:25:28.349Z,95.30
2023-02-15T20:27:55.355Z,94.80
2023-02-15T20:30:24.054Z,94.00
2023-02-15T20:32:50.625Z,93.40
2023-02-15T20:35:24.209Z,94.00
2023-02-15T20:37:52.543Z,94.10
2023-02-15T20:40:20.622Z,94.10
2023-02-15T20:42:47.586Z,94.40
2023-02-15T20:45:16.934Z,94.50
2023-02-15T20:47:48.239Z,94.90
2023-02-15T20:50:15.916Z,94.90
2023-02-15T20:52:42.793Z,95.60
2023-02-15T20:55:13.428Z,96.40
2023-02-15T20:57:39.999Z,96.70
2023-02-15T21:00:08.620Z,96.70
2023-02-15T21:02:35.254Z,97.00
2023-02-15T21:05:01.841Z,97.20
2023-02-15T21:07:28.354Z,97.30
2023-02-15T21:09:54.880Z,97.20
2023-02-15T21:12:22.150Z,97.20
2023-02-15T21:14:48.818Z,97.20
2023-02-15T21:17:16.576Z,97.00
2023-02-15T21:19:43.889Z,96.70
2023-02-15T21:22:14.164Z,96.30
2023-02-15T21:24:44.036Z,96.40
2023-02-15T21:27:12.654Z,96.00
2023-02-15T21:29:39.152Z,95.70
2023-02-15T21:32:05.732Z,95.70
2023-02-15T21:34:32.313Z,95.60
2023-02-15T21:36:58.937Z,95.60
2023-02-15T21:39:26.117Z,95.60
2023-02-15T21:42:12.250Z,95.60
2023-02-15T21:44:57.727Z,95.60
2023-02-15T21:47:44.608Z,95.80
2023-02-15T21:50:34.948Z,95.60
2023-02-15T21:53:02.231Z,95.60
2023-02-15T21:55:30.023Z,95.60
2023-02-15T21:57:56.639Z,95.60
2023-02-15T22:00:23.821Z,95.60
2023-02-15T22:02:54.711Z,95.40
2023-02-15T22:05:23.242Z,95.40
2023-02-15T22:07:49.972Z,95.50
2023-02-15T22:10:16.513Z,95.50
2023-02-15T22:12:43.597Z,95.50
2023-02-15T22:15:20.253Z,95.50
2023-02-15T22:17:46.837Z,95.50
2023-02-15T22:20:14.869Z,95.50
2023-02-15T22:22:41.394Z,95.30
2023-02-15T22:25:08.137Z,94.70
2023-02-15T22:27:37.524Z,94.50
2023-02-15T22:30:04.613Z,94.50
2023-02-15T22:32:31.242Z,94.50
2023-02-15T22:34:57.838Z,94.10
2023-02-15T22:37:24.357Z,94.00
2023-02-15T22:39:50.866Z,94.20
2023-02-15T22:42:25.569Z,94.30
2023-02-15T22:44:53.111Z,93.90
2023-02-15T22:47:21.098Z,93.90
2023-02-15T22:49:47.741Z,93.90
2023-02-15T22:52:14.516Z,93.80
2023-02-15T22:54:41.084Z,94.10
2023-02-15T22:57:14.138Z,94.30
2023-02-15T22:59:40.713Z,94.30
2023-02-15T23:02:10.158Z,94.50
2023-02-15T23:04:36.747Z,94.30
2023-02-15T23:07:06.051Z,94.40
2023-02-15T23:09:32.599Z,93.80
2023-02-15T23:11:59.225Z,93.80
2023-02-15T23:14:27.336Z,94.00
2023-02-15T23:16:53.995Z,94.30
2023-02-15T23:19:20.580Z,94.20
2023-02-15T23:21:47.345Z,94.20
2023-02-15T23:24:21.332Z,94.30
2023-02-15T23:26:48.909Z,94.40
2023-02-15T23:29:22.743Z,94.50
2023-02-15T23:31:50.674Z,94.60
2023-02-15T23:34:22.007Z,94.40
2023-02-15T23:36:48.571Z,94.20
2023-02-15T23:39:34.907Z,94.40
2023-02-15T23:42:03.499Z,93.80
2023-02-15T23:44:30.329Z,93.80
2023-02-15T23:46:57.222Z,93.80
2023-02-15T23:49:24.184Z,93.90
2023-02-15T23:51:51.908Z,94.10
2023-02-15T23:54:19.938Z,94.20
2023-02-15T23:56:49.007Z,93.80
2023-02-15T23:59:17.764Z,93.70
